Cerrillos, New Mexico
Current Conditions -  °F | °C
As of 8:53 AM on Saturday 20 Dec 2014 (Local Time) from KSAF Reporting Station
Clear Clear  
Wind Chill: 13°   Ceiling: Unl
Heat Index: 26°   Visibility: 10mi
Dew Point: 16°   Wind: 17mph
Humidity: 66%   Direction: 360°N
Pressure: 30.12"   Gusts: NA
Location:  35.44°N, 106.13°W
Report Text: KSAF 201553Z 36015KT 10SM CLR M03/M09 A3012 RMK AO2 SLP213 T10331089
Loading
Personal Weather Stations






























Interactive Weather Map New forecast layout! Learn more

10-Day Weather Forecast

Advertisements
Track Severe Weather on mobile